createdAt,value
2022-07-29T00:01:54.073Z,100180.25
2022-07-29T00:04:21.947Z,100180.22
2022-07-29T00:06:49.706Z,100177.59
2022-07-29T00:09:19.608Z,100181.22
2022-07-29T00:11:48.560Z,100172.78
2022-07-29T00:14:16.342Z,100164.09
2022-07-29T00:16:44.217Z,100169.53
2022-07-29T00:19:11.618Z,100174.44
2022-07-29T00:21:40.051Z,100158.91
2022-07-29T00:24:09.987Z,100176.84
2022-07-29T00:26:37.464Z,100168.38
2022-07-29T00:31:56.323Z,100174.31
2022-07-29T00:34:42.558Z,100179.50
2022-07-29T00:37:17.018Z,100168.69
2022-07-29T00:39:44.528Z,100148.38
2022-07-29T00:42:12.241Z,100161.59
2022-07-29T00:44:40.846Z,100161.38
2022-07-29T00:47:10.178Z,100168.06
2022-07-29T00:49:39.962Z,100161.34
2022-07-29T00:52:08.861Z,100159.00
2022-07-29T00:54:39.838Z,100158.75
2022-07-29T00:57:13.006Z,100153.34
2022-07-29T00:59:40.653Z,100150.59
2022-07-29T01:02:08.183Z,100144.31
2022-07-29T01:04:36.393Z,100151.22
2022-07-29T01:07:05.567Z,100139.50
2022-07-29T01:09:46.069Z,100145.53
2022-07-29T01:12:24.581Z,100142.91
2022-07-29T01:14:53.352Z,100153.75
2022-07-29T01:17:53.226Z,100133.28
2022-07-29T01:20:54.324Z,100145.59
2022-07-29T01:23:39.868Z,100143.06
2022-07-29T01:26:15.618Z,100143.84
2022-07-29T01:28:58.574Z,100142.75
2022-07-29T01:31:59.219Z,100139.59
2022-07-29T01:34:58.098Z,100143.25
2022-07-29T01:37:41.044Z,100141.16
2022-07-29T01:40:20.142Z,100147.91
2022-07-29T01:42:54.035Z,100151.25
2022-07-29T01:45:33.582Z,100142.06
2022-07-29T01:48:14.859Z,100145.28
2022-07-29T01:50:49.894Z,100143.75
2022-07-29T01:53:25.354Z,100141.47
2022-07-29T01:55:54.389Z,100145.38
2022-07-29T01:58:32.654Z,100145.81
2022-07-29T02:01:03.161Z,100147.06
2022-07-29T02:03:33.834Z,100141.50
2022-07-29T02:06:04.511Z,100127.31
2022-07-29T02:08:34.047Z,100135.75
2022-07-29T02:11:03.885Z,100143.50
2022-07-29T02:13:33.294Z,100148.03
2022-07-29T02:16:02.982Z,100145.41
2022-07-29T02:18:32.104Z,100133.38
2022-07-29T02:21:02.412Z,100151.44
2022-07-29T02:23:31.852Z,100147.56
2022-07-29T02:26:20.640Z,100145.13
2022-07-29T02:28:49.623Z,100132.41
2022-07-29T02:31:20.082Z,100134.19
2022-07-29T02:33:49.608Z,100141.72
2022-07-29T02:36:17.892Z,100138.41
2022-07-29T02:38:52.330Z,100128.63
2022-07-29T02:41:30.871Z,100129.25
2022-07-29T02:44:05.518Z,100137.19
2022-07-29T02:46:35.973Z,100141.34
2022-07-29T02:49:23.346Z,100134.56
2022-07-29T02:52:02.479Z,100144.56
2022-07-29T02:54:43.737Z,100133.16
2022-07-29T02:57:20.739Z,100142.94
2022-07-29T02:59:51.909Z,100144.22
2022-07-29T03:02:20.205Z,100145.41
2022-07-29T03:04:50.466Z,100139.91
2022-07-29T03:07:20.794Z,100149.28
2022-07-29T03:09:48.684Z,100142.47
2022-07-29T03:12:17.454Z,100147.75
2022-07-29T03:14:45.145Z,100150.94
2022-07-29T03:17:13.210Z,100121.84
2022-07-29T03:19:41.282Z,100144.28
2022-07-29T03:22:08.858Z,100137.13
2022-07-29T03:24:38.014Z,100152.28
2022-07-29T03:27:06.539Z,100145.56
2022-07-29T03:29:34.892Z,100147.09
2022-07-29T03:32:07.212Z,100125.03
2022-07-29T03:34:37.073Z,100151.53
2022-07-29T03:37:06.716Z,100147.88
2022-07-29T03:39:40.423Z,100148.31
2022-07-29T03:42:10.029Z,100154.81
2022-07-29T03:44:40.187Z,100136.75
2022-07-29T03:47:09.523Z,100148.19
2022-07-29T03:49:39.225Z,100146.06
2022-07-29T03:52:07.510Z,100141.63
2022-07-29T03:54:35.297Z,100150.66
2022-07-29T03:57:04.964Z,100154.72
2022-07-29T03:59:35.142Z,100154.69
2022-07-29T04:02:04.770Z,100156.50
2022-07-29T04:04:39.017Z,100149.72
2022-07-29T04:07:06.521Z,100153.09
2022-07-29T04:09:34.348Z,100153.97
2022-07-29T04:12:04.093Z,100150.88
2022-07-29T04:14:33.948Z,100153.38
2022-07-29T04:17:03.134Z,100157.38
2022-07-29T04:19:31.211Z,100155.25
2022-07-29T04:21:59.901Z,100155.50
2022-07-29T04:24:27.368Z,100148.59
2022-07-29T04:26:55.679Z,100151.28
2022-07-29T04:29:23.033Z,100143.69
2022-07-29T04:31:50.384Z,100172.47
2022-07-29T04:34:18.308Z,100172.16
2022-07-29T04:36:46.434Z,100177.75
2022-07-29T04:39:17.063Z,100171.59
2022-07-29T04:41:47.361Z,100170.97
2022-07-29T04:44:15.220Z,100169.91
2022-07-29T04:46:45.761Z,100178.78
2022-07-29T04:49:13.220Z,100171.69
2022-07-29T04:51:40.587Z,100153.50
2022-07-29T04:54:07.885Z,100167.75
2022-07-29T04:56:35.269Z,100171.13
2022-07-29T04:59:02.596Z,100171.72
2022-07-29T05:01:30.092Z,100178.50
2022-07-29T05:04:00.507Z,100178.28
2022-07-29T05:06:28.229Z,100188.31
2022-07-29T05:08:55.452Z,100179.00
2022-07-29T05:11:26.124Z,100176.81
2022-07-29T05:13:57.391Z,100177.19
2022-07-29T05:16:24.801Z,100188.06
2022-07-29T05:18:52.361Z,100179.13
2022-07-29T05:21:19.708Z,100181.56
2022-07-29T05:23:47.206Z,100177.94
2022-07-29T05:26:14.532Z,100183.97
2022-07-29T05:28:41.886Z,100180.41
2022-07-29T05:31:09.305Z,100179.94
2022-07-29T05:33:37.248Z,100183.00
2022-07-29T05:36:09.135Z,100187.56
2022-07-29T05:38:37.422Z,100188.91
2022-07-29T05:41:06.581Z,100172.88
2022-07-29T05:43:34.431Z,100194.59
2022-07-29T05:46:02.254Z,100191.03
2022-07-29T05:48:31.909Z,100198.34
2022-07-29T05:50:59.311Z,100205.72
2022-07-29T05:53:29.226Z,100202.56
2022-07-29T05:55:58.071Z,100191.34
2022-07-29T05:58:25.504Z,100208.06
2022-07-29T06:00:54.092Z,100192.72
2022-07-29T06:03:21.445Z,100202.63
2022-07-29T06:05:48.806Z,100209.53
2022-07-29T06:08:16.126Z,100210.56
2022-07-29T06:10:43.510Z,100214.50
2022-07-29T06:13:11.035Z,100208.28
2022-07-29T06:15:47.812Z,100207.00
2022-07-29T06:18:15.231Z,100208.78
2022-07-29T06:20:43.286Z,100205.44
2022-07-29T06:23:11.256Z,100213.69
2022-07-29T06:25:38.991Z,100209.78
2022-07-29T06:28:06.489Z,100203.28
2022-07-29T06:30:43.549Z,100209.44
2022-07-29T06:33:35.412Z,100213.84
2022-07-29T06:36:06.357Z,100224.50
2022-07-29T06:38:42.108Z,100212.16
2022-07-29T06:41:15.673Z,100215.19
2022-07-29T06:43:52.509Z,100211.59
2022-07-29T06:46:23.574Z,100205.13
2022-07-29T06:48:53.062Z,100208.91
2022-07-29T06:51:23.287Z,100198.84
2022-07-29T06:54:00.094Z,100200.19
2022-07-29T06:56:38.979Z,100216.03
2022-07-29T06:59:11.536Z,100200.31
2022-07-29T07:01:40.639Z,100209.00
2022-07-29T07:04:09.988Z,100205.47
2022-07-29T07:06:37.809Z,100190.19
2022-07-29T07:09:05.521Z,100183.00
2022-07-29T07:11:32.964Z,100205.25
2022-07-29T07:14:14.485Z,100202.09
2022-07-29T07:16:44.824Z,100201.09
2022-07-29T07:19:12.161Z,100205.09
2022-07-29T07:21:41.732Z,100197.00
2022-07-29T07:24:09.154Z,100202.22
2022-07-29T07:26:36.824Z,100198.47
2022-07-29T07:29:04.206Z,100206.13
2022-07-29T07:31:31.723Z,100198.91
2022-07-29T07:33:59.336Z,100207.78
2022-07-29T07:36:26.756Z,100195.06
2022-07-29T07:38:54.031Z,100185.78
2022-07-29T07:41:50.407Z,100204.66
2022-07-29T07:44:21.012Z,100195.59
2022-07-29T07:46:48.593Z,100201.75
2022-07-29T07:49:18.169Z,100182.94
2022-07-29T07:51:50.828Z,100189.63
2022-07-29T07:54:20.796Z,100199.50
2022-07-29T07:56:53.074Z,100197.72
2022-07-29T07:59:20.838Z,100193.56
2022-07-29T08:01:55.630Z,100189.94
2022-07-29T08:04:28.260Z,100196.66
2022-07-29T08:06:58.011Z,100193.47
2022-07-29T08:09:29.729Z,100203.53
2022-07-29T08:11:58.889Z,100198.41
2022-07-29T08:14:57.993Z,100201.94
2022-07-29T08:17:25.377Z,100189.44
2022-07-29T08:19:52.731Z,100198.44
2022-07-29T08:22:20.085Z,100189.41
2022-07-29T08:25:05.303Z,100201.50
2022-07-29T08:27:43.391Z,100189.09
2022-07-29T08:30:11.862Z,100188.09
2022-07-29T08:32:55.710Z,100187.56
2022-07-29T08:35:24.633Z,100190.66
2022-07-29T08:37:53.173Z,100180.63
2022-07-29T08:40:31.983Z,100197.59
2022-07-29T08:43:05.437Z,100175.78
2022-07-29T08:45:51.308Z,100166.00
2022-07-29T08:48:23.085Z,100187.06
2022-07-29T08:50:56.653Z,100184.59
2022-07-29T08:53:28.043Z,100185.19
2022-07-29T08:55:56.481Z,100184.28
2022-07-29T08:58:25.551Z,100181.78
2022-07-29T09:00:56.031Z,100177.59
2022-07-29T09:03:32.728Z,100182.69
2022-07-29T09:06:01.052Z,100190.47
2022-07-29T09:08:29.466Z,100173.41
2022-07-29T09:11:01.245Z,100183.50
2022-07-29T09:13:31.509Z,100179.84
2022-07-29T09:15:59.066Z,100178.22
2022-07-29T09:18:36.478Z,100160.03
2022-07-29T09:21:23.975Z,100188.75
2022-07-29T09:24:06.703Z,100189.41
2022-07-29T09:26:37.221Z,100165.47
2022-07-29T09:29:14.015Z,100173.13
2022-07-29T09:31:45.916Z,100166.69
2022-07-29T09:34:16.082Z,100166.31
2022-07-29T09:36:46.117Z,100161.72
2022-07-29T09:39:15.590Z,100164.22
2022-07-29T09:41:47.702Z,100162.09
2022-07-29T09:44:16.006Z,100156.25
2022-07-29T09:47:08.448Z,100168.72
2022-07-29T09:50:00.656Z,100153.56
2022-07-29T09:52:29.883Z,100154.84
2022-07-29T09:55:17.947Z,100146.69
2022-07-29T09:57:49.490Z,100156.56
2022-07-29T10:00:19.344Z,100152.72
2022-07-29T10:02:47.857Z,100153.50
2022-07-29T10:05:26.981Z,100145.81
2022-07-29T10:08:04.888Z,100114.56
2022-07-29T10:10:38.163Z,100150.63
2022-07-29T10:13:12.233Z,100136.59
2022-07-29T10:15:46.987Z,100140.94
2022-07-29T10:18:18.680Z,100132.41
2022-07-29T10:20:46.647Z,100128.38
2022-07-29T10:23:17.091Z,100133.13
2022-07-29T10:25:46.817Z,100141.44
2022-07-29T10:28:16.523Z,100134.97
2022-07-29T10:30:46.442Z,100136.75
2022-07-29T10:33:35.244Z,100139.13
2022-07-29T10:36:14.785Z,100130.94
2022-07-29T10:39:06.559Z,100133.81
2022-07-29T10:42:06.770Z,100139.06
2022-07-29T10:44:40.848Z,100099.25
2022-07-29T10:47:08.327Z,100123.69
2022-07-29T10:49:35.951Z,100129.84
2022-07-29T10:52:08.142Z,100124.84
2022-07-29T10:54:42.339Z,100136.63
2022-07-29T10:57:25.701Z,100123.19
2022-07-29T11:03:04.518Z,100124.28
2022-07-29T11:05:56.350Z,100130.13
2022-07-29T11:08:28.168Z,100119.69
2022-07-29T11:11:22.856Z,100116.91
2022-07-29T11:13:57.400Z,100123.16
2022-07-29T11:16:27.111Z,100101.28
2022-07-29T11:19:13.335Z,100121.94
2022-07-29T11:21:54.045Z,100115.78
2022-07-29T11:24:29.452Z,100113.28
2022-07-29T11:27:35.206Z,100121.78
2022-07-29T11:30:04.911Z,100124.84
2022-07-29T11:32:41.209Z,100117.19
2022-07-29T11:35:38.280Z,100126.50
2022-07-29T11:38:28.117Z,100119.94
2022-07-29T11:41:27.929Z,100118.13
2022-07-29T11:44:02.907Z,100124.44
2022-07-29T11:46:50.668Z,100115.84
2022-07-29T11:52:15.024Z,100125.97
2022-07-29T11:54:58.178Z,100124.44
2022-07-29T11:57:36.345Z,100114.41
2022-07-29T12:03:01.907Z,100113.06
2022-07-29T12:05:48.261Z,100113.75
2022-07-29T12:08:21.871Z,100118.28
2022-07-29T12:10:51.877Z,100119.00
2022-07-29T12:13:22.191Z,100115.50
2022-07-29T12:16:00.090Z,100121.94
2022-07-29T12:18:28.227Z,100124.31
2022-07-29T12:21:03.583Z,100113.13
2022-07-29T12:23:35.034Z,100114.19
2022-07-29T12:26:10.606Z,100114.41
2022-07-29T12:28:40.005Z,100110.38
2022-07-29T12:31:14.287Z,100107.19
2022-07-29T12:33:42.455Z,100119.13
2022-07-29T12:36:14.186Z,100111.69
2022-07-29T12:38:45.848Z,100119.22
2022-07-29T12:41:14.034Z,100116.53
2022-07-29T12:43:54.253Z,100111.66
2022-07-29T12:46:21.903Z,100110.88
2022-07-29T12:48:57.786Z,100104.75
2022-07-29T12:51:41.886Z,100118.69
2022-07-29T12:54:16.508Z,100112.50
2022-07-29T12:56:45.904Z,100118.53
2022-07-29T12:59:18.836Z,100110.13
2022-07-29T13:01:54.527Z,100111.34
2022-07-29T13:04:37.812Z,100121.94
2022-07-29T13:07:10.505Z,100097.91
2022-07-29T13:09:39.308Z,100128.75
2022-07-29T13:12:11.365Z,100113.84
2022-07-29T13:14:41.822Z,100126.19
2022-07-29T13:17:20.497Z,100108.28
2022-07-29T13:19:48.894Z,100112.94
2022-07-29T13:22:24.412Z,100122.41
2022-07-29T13:24:57.068Z,100115.34
2022-07-29T13:27:29.272Z,100120.59
2022-07-29T13:29:58.925Z,100119.47
2022-07-29T13:32:29.066Z,100118.34
2022-07-29T13:34:58.038Z,100119.19
2022-07-29T13:37:25.849Z,100118.38
2022-07-29T13:39:54.244Z,100130.09
2022-07-29T13:42:23.206Z,100119.19
2022-07-29T13:44:52.828Z,100119.47
2022-07-29T13:47:21.292Z,100117.78
2022-07-29T13:49:49.413Z,100119.47
2022-07-29T13:52:17.232Z,100129.31
2022-07-29T13:54:45.212Z,100126.22
2022-07-29T13:57:13.620Z,100140.19
2022-07-29T13:59:43.159Z,100114.84
2022-07-29T14:02:12.253Z,100132.03
2022-07-29T14:04:44.339Z,100114.41
2022-07-29T14:07:11.777Z,100115.53
2022-07-29T14:09:43.989Z,100124.22
2022-07-29T14:12:11.435Z,100123.34
2022-07-29T14:14:38.867Z,100123.88
2022-07-29T14:17:07.804Z,100120.94
2022-07-29T14:19:39.648Z,100119.06
2022-07-29T14:22:08.662Z,100113.50
2022-07-29T14:24:37.717Z,100088.28
2022-07-29T14:27:06.664Z,100112.66
2022-07-29T14:29:35.259Z,100108.19
2022-07-29T14:32:08.020Z,100100.38
2022-07-29T14:34:36.801Z,100105.44
2022-07-29T14:37:06.921Z,100100.91
2022-07-29T14:39:42.333Z,100101.47
2022-07-29T14:42:12.865Z,100088.88
2022-07-29T14:44:42.776Z,100096.75
2022-07-29T14:47:10.735Z,100101.47
2022-07-29T14:49:38.149Z,100101.97
2022-07-29T14:52:05.935Z,100099.09
2022-07-29T14:54:33.518Z,100082.25
2022-07-29T14:57:01.045Z,100093.16
2022-07-29T14:59:28.497Z,100101.25
2022-07-29T15:01:56.296Z,100095.72
2022-07-29T15:04:24.153Z,100095.16
2022-07-29T15:06:51.702Z,100101.69
2022-07-29T15:09:19.335Z,100105.16
2022-07-29T15:11:46.762Z,100107.50
2022-07-29T15:14:14.095Z,100099.84
2022-07-29T15:16:43.516Z,100079.88
2022-07-29T15:19:11.860Z,100103.16
2022-07-29T15:21:41.618Z,100092.59
2022-07-29T15:24:19.919Z,100070.13
2022-07-29T15:26:50.862Z,100096.94
2022-07-29T15:29:18.301Z,100090.97
2022-07-29T15:31:45.740Z,100075.31
2022-07-29T15:34:13.166Z,100095.91
2022-07-29T15:36:56.319Z,100084.56
2022-07-29T15:39:29.088Z,100083.84
2022-07-29T15:41:56.795Z,100082.44
2022-07-29T15:44:24.485Z,100078.63
2022-07-29T15:47:06.365Z,100091.16
2022-07-29T15:49:47.339Z,100089.00
2022-07-29T15:52:24.744Z,100084.16
2022-07-29T15:54:55.533Z,100083.78
2022-07-29T15:57:23.981Z,100078.78
2022-07-29T15:59:52.151Z,100085.63
2022-07-29T16:02:19.868Z,100076.00
2022-07-29T16:04:47.524Z,100072.66
2022-07-29T16:07:15.631Z,100080.22
2022-07-29T16:09:44.855Z,100077.59
2022-07-29T16:12:16.928Z,100068.09
2022-07-29T16:14:44.989Z,100071.72
2022-07-29T16:17:14.572Z,100078.53
2022-07-29T16:19:43.846Z,100078.16
2022-07-29T16:22:12.809Z,100063.97
2022-07-29T16:24:40.439Z,100075.72
2022-07-29T16:27:07.902Z,100067.72
2022-07-29T16:29:37.308Z,100078.75
2022-07-29T16:32:06.432Z,100068.44
2022-07-29T16:34:34.067Z,100041.88
2022-07-29T16:37:02.020Z,100078.38
2022-07-29T16:39:32.520Z,100080.28
2022-07-29T16:42:06.162Z,100076.69
2022-07-29T16:44:36.068Z,100062.16
2022-07-29T16:47:08.560Z,100080.31
2022-07-29T16:49:36.841Z,100074.75
2022-07-29T16:52:04.477Z,100090.13
2022-07-29T16:54:31.896Z,100087.19
2022-07-29T16:57:02.250Z,100084.31
2022-07-29T16:59:30.379Z,100083.75
2022-07-29T17:01:58.147Z,100087.56
2022-07-29T17:04:27.768Z,100093.16
2022-07-29T17:06:55.539Z,100087.69
2022-07-29T17:09:23.862Z,100091.47
2022-07-29T17:11:55.262Z,100086.25
2022-07-29T17:14:25.349Z,100086.31
2022-07-29T17:17:01.177Z,100103.06
2022-07-29T17:19:35.643Z,100098.72
2022-07-29T17:22:18.774Z,100104.81
2022-07-29T17:24:47.844Z,100108.09
2022-07-29T17:27:16.022Z,100116.88
2022-07-29T17:29:43.564Z,100110.50
2022-07-29T17:32:12.076Z,100110.19
2022-07-29T17:34:41.536Z,100119.28
2022-07-29T17:37:10.191Z,100130.19
2022-07-29T17:39:41.692Z,100133.50
2022-07-29T17:42:10.639Z,100130.59
2022-07-29T17:44:39.150Z,100126.63
2022-07-29T17:47:07.902Z,100131.38
2022-07-29T17:49:38.044Z,100102.25
2022-07-29T17:52:05.834Z,100126.09
2022-07-29T17:54:33.623Z,100132.50
2022-07-29T17:57:01.379Z,100132.53
2022-07-29T17:59:29.123Z,100141.63
2022-07-29T18:01:56.658Z,100138.47
2022-07-29T18:04:24.157Z,100127.69
2022-07-29T18:06:51.888Z,100134.19
2022-07-29T18:09:19.373Z,100128.38
2022-07-29T18:11:48.286Z,100134.16
2022-07-29T18:14:15.814Z,100136.00
2022-07-29T18:16:43.339Z,100128.47
2022-07-29T18:19:10.756Z,100131.34
2022-07-29T18:21:51.224Z,100135.06
2022-07-29T18:24:27.736Z,100142.44
2022-07-29T18:26:55.223Z,100130.44
2022-07-29T18:29:22.772Z,100139.22
2022-07-29T18:31:50.392Z,100138.13
2022-07-29T18:34:17.879Z,100143.56
2022-07-29T18:36:46.089Z,100152.59
2022-07-29T18:39:20.975Z,100131.88
2022-07-29T18:41:51.927Z,100153.63
2022-07-29T18:44:22.089Z,100146.22
2022-07-29T18:46:51.519Z,100158.41
2022-07-29T18:49:19.450Z,100153.41
2022-07-29T18:51:47.259Z,100160.91
2022-07-29T18:54:14.742Z,100138.38
2022-07-29T18:56:42.214Z,100158.59
2022-07-29T18:59:09.761Z,100162.47
2022-07-29T19:01:38.226Z,100158.19
2022-07-29T19:04:05.882Z,100169.53
2022-07-29T19:06:33.323Z,100165.53
2022-07-29T19:09:01.067Z,100173.03
2022-07-29T19:11:28.528Z,100174.56
2022-07-29T19:13:56.195Z,100177.59
2022-07-29T19:16:25.734Z,100173.84
2022-07-29T19:18:53.851Z,100189.25
2022-07-29T19:21:25.127Z,100164.72
2022-07-29T19:24:01.791Z,100185.63
2022-07-29T19:26:36.912Z,100183.31
2022-07-29T19:29:04.936Z,100181.25
2022-07-29T19:31:32.515Z,100181.91
2022-07-29T19:34:00.139Z,100180.38
2022-07-29T19:36:27.608Z,100181.63
2022-07-29T19:38:55.022Z,100181.69
2022-07-29T19:41:24.713Z,100188.59
2022-07-29T19:43:53.191Z,100178.97
2022-07-29T19:46:24.491Z,100187.09
2022-07-29T19:48:53.233Z,100161.16
2022-07-29T19:51:20.932Z,100185.78
2022-07-29T19:53:48.752Z,100185.78
2022-07-29T19:56:16.222Z,100188.59
2022-07-29T19:58:44.990Z,100179.19
2022-07-29T20:01:12.794Z,100173.03
2022-07-29T20:03:40.422Z,100196.88
2022-07-29T20:06:08.749Z,100183.16
2022-07-29T20:08:36.330Z,100187.50
2022-07-29T20:11:04.814Z,100152.97
2022-07-29T20:13:33.901Z,100182.22
2022-07-29T20:16:05.595Z,100179.28
2022-07-29T20:18:35.353Z,100185.34
2022-07-29T20:21:04.773Z,100185.03
2022-07-29T20:23:33.255Z,100172.06
2022-07-29T20:26:01.310Z,100189.75
2022-07-29T20:28:28.733Z,100181.09
2022-07-29T20:30:56.297Z,100188.31
2022-07-29T20:33:23.839Z,100189.63
2022-07-29T20:35:51.169Z,100185.22
2022-07-29T20:38:18.622Z,100195.22
2022-07-29T20:40:46.361Z,100186.59
2022-07-29T20:43:13.858Z,100169.59
2022-07-29T20:45:41.275Z,100179.59
2022-07-29T20:48:10.875Z,100194.47
2022-07-29T20:50:38.244Z,100187.31
2022-07-29T20:53:05.817Z,100195.19
2022-07-29T20:55:33.536Z,100194.75
2022-07-29T20:58:00.936Z,100186.97
2022-07-29T21:00:29.456Z,100198.72
2022-07-29T21:02:57.078Z,100197.22
2022-07-29T21:05:24.512Z,100207.53
2022-07-29T21:07:56.516Z,100205.75
2022-07-29T21:10:25.992Z,100204.75
2022-07-29T21:12:55.770Z,100206.06
2022-07-29T21:15:27.917Z,100204.78
2022-07-29T21:18:06.291Z,100214.78
2022-07-29T21:20:33.810Z,100219.69
2022-07-29T21:23:01.226Z,100203.94
2022-07-29T21:25:29.000Z,100213.94
2022-07-29T21:28:15.054Z,100198.91
2022-07-29T21:30:42.777Z,100212.97
2022-07-29T21:33:10.429Z,100212.97
2022-07-29T21:36:10.178Z,100218.53
2022-07-29T21:38:27.216Z,100211.63
2022-07-29T21:40:55.240Z,100210.41
2022-07-29T21:43:24.064Z,100204.94
2022-07-29T21:45:51.675Z,100226.78
2022-07-29T21:48:20.585Z,100229.97
2022-07-29T21:50:49.315Z,100220.03
2022-07-29T21:53:17.661Z,100220.69
2022-07-29T21:55:51.793Z,100218.53
2022-07-29T21:58:24.041Z,100218.13
2022-07-29T22:00:51.592Z,100221.56
2022-07-29T22:03:18.976Z,100224.13
2022-07-29T22:05:46.749Z,100222.19
2022-07-29T22:08:14.209Z,100226.25
2022-07-29T22:10:41.898Z,100222.00
2022-07-29T22:13:09.315Z,100224.78
2022-07-29T22:15:36.885Z,100225.41
2022-07-29T22:18:04.377Z,100212.88
2022-07-29T22:20:31.717Z,100218.63
2022-07-29T22:22:59.191Z,100219.47
2022-07-29T22:25:27.777Z,100218.19
2022-07-29T22:27:55.162Z,100222.88
2022-07-29T22:30:22.541Z,100220.97
2022-07-29T22:32:50.060Z,100213.94
2022-07-29T22:35:18.091Z,100215.88
2022-07-29T22:37:45.506Z,100216.94
2022-07-29T22:40:13.058Z,100215.22
2022-07-29T22:42:41.104Z,100202.25
2022-07-29T22:45:10.143Z,100213.31
2022-07-29T22:47:46.196Z,100206.94
2022-07-29T22:50:17.453Z,100202.25
2022-07-29T22:52:45.861Z,100206.25
2022-07-29T22:55:13.725Z,100188.81
2022-07-29T22:57:41.266Z,100210.09
2022-07-29T23:00:09.418Z,100210.09
2022-07-29T23:02:37.645Z,100204.84
2022-07-29T23:05:05.464Z,100210.56
2022-07-29T23:07:34.223Z,100207.56
2022-07-29T23:10:02.351Z,100189.25
2022-07-29T23:12:32.122Z,100214.78
2022-07-29T23:14:59.582Z,100213.94
2022-07-29T23:17:26.920Z,100205.59
2022-07-29T23:19:54.272Z,100196.88
2022-07-29T23:22:21.542Z,100209.25
2022-07-29T23:24:48.891Z,100202.63
2022-07-29T23:27:16.234Z,100196.69
2022-07-29T23:29:43.636Z,100203.47
2022-07-29T23:32:10.983Z,100197.13
2022-07-29T23:34:38.598Z,100181.81
2022-07-29T23:37:06.340Z,100174.19
2022-07-29T23:39:33.675Z,100183.53
2022-07-29T23:42:01.045Z,100173.09
2022-07-29T23:44:28.449Z,100179.06
2022-07-29T23:46:55.815Z,100180.97
2022-07-29T23:49:23.301Z,100165.63
2022-07-29T23:51:50.748Z,100168.81
2022-07-29T23:54:18.125Z,100178.59
2022-07-29T23:56:45.588Z,100185.19
2022-07-29T23:59:13.768Z,100169.88
